Time;durP1;ratioP1;P1;durP2;ratioP2;P2;SDS_P1;SDS_P2;PMS_P1;PMS_P2;Temp;Humidity;BMP_temperature;BMP_pressure;BME280_temperature;BME280_humidity;BME280_pressure;Samples;Min_cycle;Max_cycle;Signal;HPM_P1;HPM_P2
2022/03/11 00:00:00;;;;;;;7.77;3.50;;;7.60;95.20;;;;;;4954189;28;20204;-73
2022/03/11 00:02:27;;;;;;;14.47;6.17;;;7.60;96.00;;;;;;4954181;28;20228;-73
2022/03/11 00:04:54;;;;;;;7.67;3.13;;;7.50;95.90;;;;;;4954438;28;20208;-73
2022/03/11 00:07:21;;;;;;;9.33;3.77;;;7.40;96.00;;;;;;4955123;28;20208;-73
2022/03/11 00:09:48;;;;;;;7.43;3.60;;;7.30;96.70;;;;;;4957511;28;20218;-73
2022/03/11 00:12:14;;;;;;;5.77;3.23;;;7.20;96.00;;;;;;4957730;28;20210;-73
2022/03/11 00:14:41;;;;;;;6.77;2.93;;;7.10;97.10;;;;;;4957871;28;20235;-73
2022/03/11 00:17:09;;;;;;;5.70;2.90;;;7.00;97.50;;;;;;4956823;28;20212;-73
2022/03/11 00:19:36;;;;;;;7.63;3.50;;;6.90;97.50;;;;;;4957527;28;20214;-73
2022/03/11 00:22:03;;;;;;;5.97;2.83;;;6.80;97.90;;;;;;4957489;28;20222;-73
2022/03/11 00:24:30;;;;;;;8.83;2.50;;;6.80;98.10;;;;;;4957109;28;20299;-73
2022/03/11 00:26:57;;;;;;;5.17;2.70;;;6.70;97.30;;;;;;4957138;28;20215;-73
2022/03/11 00:29:24;;;;;;;7.27;2.70;;;6.70;97.70;;;;;;4957212;28;20655;-73
2022/03/11 00:31:50;;;;;;;5.03;2.17;;;6.60;98.40;;;;;;4957316;28;20216;-73
2022/03/11 00:34:19;;;;;;;6.03;2.70;;;6.50;96.20;;;;;;4956667;28;20242;-73
2022/03/11 00:36:45;;;;;;;6.50;2.40;;;6.40;97.50;;;;;;4957117;28;20855;-73
2022/03/11 00:39:12;;;;;;;4.87;2.77;;;6.40;97.60;;;;;;4957573;28;20210;-73
2022/03/11 00:41:39;;;;;;;5.40;2.57;;;6.30;98.00;;;;;;4957380;28;20208;-73
2022/03/11 00:44:07;;;;;;;6.23;2.47;;;6.30;98.70;;;;;;4956742;28;20227;-73
2022/03/11 00:46:33;;;;;;;5.73;2.63;;;6.20;98.30;;;;;;4957188;28;20222;-73
2022/03/11 00:49:00;;;;;;;5.30;2.57;;;6.10;99.00;;;;;;4957017;28;20211;-73
2022/03/11 00:51:28;;;;;;;5.50;3.00;;;6.10;99.40;;;;;;4957213;28;20214;-73
2022/03/11 00:53:55;;;;;;;5.63;2.40;;;6.00;99.50;;;;;;4957293;28;20240;-73
2022/03/11 00:56:23;;;;;;;5.43;2.50;;;5.90;99.10;;;;;;4957002;28;20321;-73
2022/03/11 00:58:50;;;;;;;4.10;2.27;;;6.00;99.70;;;;;;4957089;28;20212;-73
2022/03/11 01:01:17;;;;;;;5.33;2.67;;;5.90;98.60;;;;;;4957106;28;20204;-72
2022/03/11 01:03:43;;;;;;;5.40;2.60;;;5.90;99.40;;;;;;4956676;28;20586;-72
2022/03/11 01:06:10;;;;;;;5.07;2.37;;;5.90;99.70;;;;;;4956369;28;20210;-73
2022/03/11 01:08:38;;;;;;;4.53;2.83;;;5.80;99.60;;;;;;4956844;28;20679;-73
2022/03/11 01:11:08;;;;;;;5.80;2.47;;;5.70;99.90;;;;;;4956817;28;20210;-73
2022/03/11 01:13:35;;;;;;;4.87;2.33;;;5.60;99.90;;;;;;4956523;28;20244;-73
2022/03/11 01:16:02;;;;;;;4.63;2.33;;;5.60;99.90;;;;;;4956648;28;20204;-73
2022/03/11 01:18:28;;;;;;;6.07;2.40;;;5.50;99.90;;;;;;4956073;28;20212;-72
2022/03/11 01:20:56;;;;;;;4.97;2.10;;;5.60;99.90;;;;;;4956738;28;20213;-73
2022/03/11 01:23:23;;;;;;;5.50;2.53;;;5.60;99.90;;;;;;4956266;28;20236;-73
2022/03/11 01:25:51;;;;;;;6.47;2.40;;;5.50;99.90;;;;;;4956731;28;20205;-73
2022/03/11 01:28:18;;;;;;;4.20;2.17;;;5.50;99.90;;;;;;4956760;28;20216;-73
2022/03/11 01:30:45;;;;;;;5.23;2.40;;;5.50;99.10;;;;;;4956632;28;20211;-72
2022/03/11 01:33:12;;;;;;;5.13;2.77;;;5.50;98.80;;;;;;4956421;28;20711;-72
2022/03/11 01:35:38;;;;;;;4.87;2.43;;;5.40;99.30;;;;;;4956358;28;20214;-72
2022/03/11 01:38:05;;;;;;;7.27;2.20;;;5.40;97.50;;;;;;4956828;28;20230;-72
2022/03/11 01:40:32;;;;;;;3.83;2.17;;;5.50;97.40;;;;;;4956483;28;20216;-72
2022/03/11 01:43:00;;;;;;;5.00;2.40;;;5.60;97.20;;;;;;4956256;28;20228;-73
2022/03/11 01:45:27;;;;;;;4.90;2.27;;;5.80;97.00;;;;;;4956064;28;20304;-73
2022/03/11 01:47:54;;;;;;;4.63;1.90;;;5.90;96.00;;;;;;4956022;28;20208;-73
2022/03/11 01:50:20;;;;;;;5.93;2.23;;;6.00;95.50;;;;;;4956017;28;20200;-73
2022/03/11 01:52:47;;;;;;;4.60;2.00;;;6.20;95.80;;;;;;4955819;28;20224;-73
2022/03/11 01:55:15;;;;;;;6.50;2.67;;;6.20;95.20;;;;;;4955498;28;20239;-73
2022/03/11 01:57:42;;;;;;;4.50;2.37;;;6.20;96.00;;;;;;4955981;28;20222;-73
2022/03/11 02:00:11;;;;;;;3.80;2.00;;;6.30;95.30;;;;;;4955860;28;20212;-73
2022/03/11 02:02:38;;;;;;;4.80;2.20;;;6.30;95.30;;;;;;4955902;28;20228;-73
2022/03/11 02:05:06;;;;;;;5.40;2.10;;;6.30;95.10;;;;;;4955577;28;20293;-73
2022/03/11 02:07:33;;;;;;;5.40;2.20;;;6.20;95.00;;;;;;4955590;28;20571;-73
2022/03/11 02:10:00;;;;;;;3.80;2.10;;;6.20;95.30;;;;;;4955227;28;20219;-73
2022/03/11 02:12:31;;;;;;;5.23;2.20;;;6.20;95.50;;;;;;4955533;28;20234;-73
2022/03/11 02:14:57;;;;;;;4.33;1.80;;;6.20;95.90;;;;;;4960126;28;20234;-73
2022/03/11 02:17:26;;;;;;;7.17;2.20;;;6.20;95.90;;;;;;4958822;28;20282;-73
2022/03/11 02:19:52;;;;;;;4.33;1.93;;;6.20;95.50;;;;;;4955620;28;20211;-74
2022/03/11 02:22:22;;;;;;;5.00;2.30;;;6.30;96.20;;;;;;4955545;28;20781;-73
2022/03/11 02:24:51;;;;;;;4.97;1.93;;;6.20;95.50;;;;;;4954930;28;20591;-73
2022/03/11 02:27:18;;;;;;;3.43;2.00;;;6.10;95.80;;;;;;4955346;28;20663;-73
2022/03/11 02:29:44;;;;;;;5.90;2.50;;;6.10;94.90;;;;;;4954652;28;20216;-73
2022/03/11 02:32:11;;;;;;;7.07;2.30;;;6.00;94.90;;;;;;4955002;28;20218;-73
2022/03/11 02:34:38;;;;;;;4.10;2.17;;;6.10;94.90;;;;;;4955175;28;20238;-73
2022/03/11 02:37:06;;;;;;;5.43;1.97;;;6.10;94.70;;;;;;4955060;28;20211;-73
2022/03/11 02:39:32;;;;;;;4.30;2.20;;;6.10;94.40;;;;;;4955452;28;20211;-73
2022/03/11 02:42:03;;;;;;;3.83;2.33;;;6.10;94.30;;;;;;4955188;28;20208;-73
2022/03/11 02:44:31;;;;;;;6.30;2.30;;;6.10;94.50;;;;;;4955345;28;20246;-73
2022/03/11 02:46:59;;;;;;;5.67;2.63;;;6.10;94.40;;;;;;4955177;28;20215;-73
2022/03/11 02:49:26;;;;;;;4.97;2.10;;;6.10;94.70;;;;;;4954819;28;20204;-73
2022/03/11 02:51:53;;;;;;;4.33;2.10;;;6.20;94.50;;;;;;4954652;28;20211;-74
2022/03/11 02:54:20;;;;;;;4.73;2.23;;;6.30;94.10;;;;;;4966859;28;20238;-74
2022/03/11 02:56:47;;;;;;;4.60;2.27;;;6.20;93.50;;;;;;4973983;28;20207;-72
2022/03/11 02:59:15;;;;;;;6.70;2.47;;;6.40;93.60;;;;;;4973994;28;20577;-72
2022/03/11 03:01:42;;;;;;;3.60;1.90;;;6.50;93.40;;;;;;4974466;28;20203;-71
2022/03/11 03:04:09;;;;;;;4.80;2.60;;;6.40;93.30;;;;;;4974270;28;20237;-72
2022/03/11 03:06:35;;;;;;;6.00;2.50;;;6.50;93.20;;;;;;4974107;28;20562;-72
2022/03/11 03:09:02;;;;;;;4.83;2.43;;;6.50;93.10;;;;;;4973695;28;20207;-72
2022/03/11 03:11:29;;;;;;;6.60;2.40;;;6.40;93.20;;;;;;4973904;28;20217;-72
2022/03/11 03:13:56;;;;;;;4.57;2.27;;;6.50;92.80;;;;;;4966091;28;20232;-72
2022/03/11 03:16:24;;;;;;;5.13;2.33;;;6.50;93.10;;;;;;4954632;28;20651;-72
2022/03/11 03:18:51;;;;;;;6.10;2.63;;;6.60;92.90;;;;;;4954346;28;20215;-72
2022/03/11 03:21:18;;;;;;;4.37;2.50;;;6.60;92.80;;;;;;4954798;28;20212;-72
2022/03/11 03:23:45;;;;;;;6.50;2.67;;;6.60;92.90;;;;;;4954233;28;20235;-72
2022/03/11 03:26:12;;;;;;;7.07;2.17;;;6.60;92.70;;;;;;4954481;28;20211;-72
2022/03/11 03:28:39;;;;;;;6.60;2.87;;;6.70;92.50;;;;;;4954506;28;20216;-72
2022/03/11 03:31:05;;;;;;;4.17;2.27;;;6.70;92.60;;;;;;4954871;28;20234;-72
2022/03/11 03:33:33;;;;;;;5.77;2.40;;;6.70;92.70;;;;;;4959671;28;20223;-72
2022/03/11 03:36:00;;;;;;;6.60;2.50;;;6.70;92.80;;;;;;4974085;28;20217;-73
2022/03/11 03:38:27;;;;;;;4.23;2.13;;;6.70;92.50;;;;;;4973563;28;20211;-72
2022/03/11 03:40:54;;;;;;;4.97;2.40;;;6.70;92.40;;;;;;4974146;28;20215;-72
2022/03/11 03:43:21;;;;;;;5.50;2.50;;;6.70;92.30;;;;;;4977396;28;20231;-72
2022/03/11 03:45:48;;;;;;;4.23;2.17;;;6.80;92.20;;;;;;4977560;28;20221;-72
2022/03/11 03:48:14;;;;;;;5.57;2.73;;;6.80;92.10;;;;;;4977546;28;20207;-72
2022/03/11 03:50:42;;;;;;;4.80;2.30;;;6.90;92.00;;;;;;4977853;28;20211;-72
2022/03/11 03:53:09;;;;;;;7.23;2.40;;;6.90;92.30;;;;;;4966056;28;20234;-72
2022/03/11 03:55:36;;;;;;;6.70;2.30;;;6.90;91.90;;;;;;4957624;28;20254;-72
2022/03/11 03:58:03;;;;;;;6.03;2.50;;;6.90;91.90;;;;;;4957621;28;20204;-72
2022/03/11 04:00:30;;;;;;;4.57;2.23;;;6.90;92.00;;;;;;4958119;28;20214;-72
2022/03/11 04:02:56;;;;;;;3.90;2.20;;;7.00;92.00;;;;;;4958173;28;20279;-73
2022/03/11 04:05:23;;;;;;;5.70;2.47;;;7.00;91.70;;;;;;4958275;28;20208;-72
2022/03/11 04:07:51;;;;;;;6.33;2.60;;;7.00;92.00;;;;;;4957970;28;20212;-72
2022/03/11 04:10:19;;;;;;;5.27;2.40;;;6.90;91.80;;;;;;4958043;28;20212;-73
2022/03/11 04:12:46;;;;;;;4.73;2.33;;;7.00;91.80;;;;;;4957885;28;20230;-73
2022/03/11 04:15:13;;;;;;;4.50;2.57;;;7.00;91.80;;;;;;4957866;28;20234;-73
2022/03/11 04:17:40;;;;;;;5.87;2.50;;;7.00;91.80;;;;;;4958342;28;20203;-73
2022/03/11 04:20:08;;;;;;;5.63;2.47;;;6.90;91.80;;;;;;4957311;28;20211;-73
2022/03/11 04:22:40;;;;;;;3.93;2.07;;;7.00;91.80;;;;;;4957419;28;20231;-73
2022/03/11 04:25:10;;;;;;;6.57;2.30;;;7.00;91.70;;;;;;4957769;28;20208;-73
2022/03/11 04:27:37;;;;;;;5.00;2.50;;;6.90;92.00;;;;;;4957704;28;20263;-72
2022/03/11 04:30:04;;;;;;;8.30;2.50;;;6.90;92.10;;;;;;4957246;28;20883;-72
2022/03/11 04:32:31;;;;;;;6.83;2.47;;;6.90;91.90;;;;;;4957250;28;20236;-72
2022/03/11 04:34:58;;;;;;;5.27;2.27;;;6.90;92.20;;;;;;4957064;28;20733;-73
2022/03/11 04:37:25;;;;;;;7.17;2.70;;;7.00;91.90;;;;;;4957799;28;20207;-73
2022/03/11 04:39:51;;;;;;;5.10;2.53;;;6.90;92.30;;;;;;4957225;28;20663;-73
2022/03/11 04:42:20;;;;;;;5.90;2.67;;;6.80;92.10;;;;;;4957330;28;20207;-73
2022/03/11 04:44:46;;;;;;;10.83;2.90;;;6.80;92.50;;;;;;4956880;28;20212;-73
2022/03/11 04:47:13;;;;;;;3.90;2.30;;;6.90;92.30;;;;;;4957020;28;20555;-72
2022/03/11 04:49:40;;;;;;;4.13;2.17;;;6.80;92.30;;;;;;4957098;28;20214;-73
2022/03/11 04:52:07;;;;;;;4.47;2.50;;;6.90;92.40;;;;;;4957092;28;20200;-72
2022/03/11 04:54:34;;;;;;;7.70;2.50;;;6.70;92.40;;;;;;4956182;28;20231;-72
2022/03/11 04:57:01;;;;;;;5.03;2.27;;;6.70;92.60;;;;;;4956886;28;20208;-73
2022/03/11 04:59:29;;;;;;;5.93;2.80;;;6.60;92.90;;;;;;4957087;28;20667;-73
2022/03/11 05:01:56;;;;;;;7.67;2.83;;;6.50;93.00;;;;;;4957210;28;20219;-73
2022/03/11 05:04:23;;;;;;;4.43;2.77;;;6.50;93.10;;;;;;4957108;28;20232;-73
2022/03/11 05:06:49;;;;;;;7.73;3.13;;;6.50;93.00;;;;;;4956615;28;20567;-73
2022/03/11 05:09:16;;;;;;;5.73;2.57;;;6.50;93.10;;;;;;4957018;28;20211;-73
2022/03/11 05:11:43;;;;;;;4.90;2.70;;;6.50;93.20;;;;;;4956229;28;20667;-73
2022/03/11 05:14:10;;;;;;;5.90;2.30;;;6.50;93.30;;;;;;4956203;28;20224;-73
2022/03/11 05:16:38;;;;;;;4.43;2.40;;;6.50;93.30;;;;;;4956122;28;20214;-73
2022/03/11 05:19:05;;;;;;;7.97;2.87;;;6.50;93.30;;;;;;4967827;28;20203;-73
2022/03/11 05:21:32;;;;;;;5.30;2.40;;;6.50;93.50;;;;;;4975532;28;20209;-73
2022/03/11 05:23:59;;;;;;;5.90;2.77;;;6.40;93.70;;;;;;4966978;28;20216;-72
2022/03/11 05:26:27;;;;;;;3.73;2.33;;;6.40;93.80;;;;;;4958021;28;20575;-72
2022/03/11 05:28:55;;;;;;;5.80;2.63;;;6.40;93.80;;;;;;4956147;28;20218;-73
2022/03/11 05:31:22;;;;;;;4.93;2.60;;;6.40;93.80;;;;;;4956026;28;20208;-72
2022/03/11 05:33:50;;;;;;;9.57;2.73;;;6.40;93.80;;;;;;4956258;28;20254;-72
2022/03/11 05:36:17;;;;;;;5.30;2.70;;;6.30;93.90;;;;;;4955442;28;20235;-73
2022/03/11 05:38:44;;;;;;;4.00;2.30;;;6.30;93.90;;;;;;4956142;28;20212;-73
2022/03/11 05:41:11;;;;;;;6.27;3.10;;;6.30;94.00;;;;;;4963588;28;20203;-73
2022/03/11 05:43:38;;;;;;;4.07;2.37;;;6.30;94.00;;;;;;4975069;28;20241;-73
2022/03/11 05:46:05;;;;;;;4.73;2.27;;;6.40;94.10;;;;;;4975380;28;20218;-73
2022/03/11 05:48:32;;;;;;;6.60;2.50;;;6.30;94.20;;;;;;4975259;28;20213;-73
2022/03/11 05:51:01;;;;;;;7.03;2.53;;;6.30;94.30;;;;;;4963749;28;20200;-73
2022/03/11 05:53:28;;;;;;;6.60;3.00;;;6.30;94.30;;;;;;4955981;28;20586;-73
2022/03/11 05:55:54;;;;;;;6.77;2.80;;;6.20;94.30;;;;;;4955697;28;20239;-73
2022/03/11 05:58:21;;;;;;;5.53;2.50;;;6.20;94.50;;;;;;4955806;28;20208;-73
2022/03/11 06:00:49;;;;;;;5.33;2.70;;;6.20;94.40;;;;;;4955930;28;20208;-73
2022/03/11 06:03:16;;;;;;;5.67;2.30;;;6.20;94.50;;;;;;4955597;28;20754;-73
2022/03/11 06:05:43;;;;;;;6.30;2.60;;;6.30;94.50;;;;;;4958823;28;20654;-73
2022/03/11 06:08:11;;;;;;;7.13;2.90;;;6.30;94.60;;;;;;4955596;28;20303;-73
2022/03/11 06:10:38;;;;;;;5.43;2.60;;;6.20;94.60;;;;;;4955353;28;20663;-73
2022/03/11 06:13:05;;;;;;;5.47;2.77;;;6.20;94.70;;;;;;4954952;28;20262;-73
2022/03/11 06:15:32;;;;;;;6.03;2.70;;;6.20;95.00;;;;;;4955001;28;20235;-73
2022/03/11 06:17:58;;;;;;;3.77;2.13;;;6.20;95.00;;;;;;4955315;28;20681;-73
2022/03/11 06:20:29;;;;;;;5.13;2.63;;;6.20;95.40;;;;;;4954987;28;20204;-73
2022/03/11 06:22:56;;;;;;;7.03;2.80;;;6.10;95.00;;;;;;4955455;28;20263;-73
2022/03/11 06:25:24;;;;;;;4.10;2.40;;;6.20;95.10;;;;;;4955546;28;20303;-73
2022/03/11 06:27:51;;;;;;;6.10;2.60;;;6.30;94.80;;;;;;4966538;28;20230;-73
2022/03/11 06:30:18;;;;;;;5.13;2.17;;;6.40;94.90;;;;;;4973806;28;20206;-73
2022/03/11 06:32:47;;;;;;;6.30;2.50;;;6.50;94.60;;;;;;4954794;29;20261;-73
2022/03/11 06:35:15;;;;;;;7.17;2.70;;;6.80;94.40;;;;;;4955328;28;20239;-73
2022/03/11 06:37:42;;;;;;;6.00;2.43;;;7.10;94.00;;;;;;4955195;28;20204;-73
2022/03/11 06:40:10;;;;;;;4.17;2.33;;;7.30;93.80;;;;;;4954967;28;20571;-73
2022/03/11 06:42:40;;;;;;;7.97;2.80;;;7.60;93.70;;;;;;4954838;28;20733;-73
2022/03/11 06:45:08;;;;;;;4.77;2.27;;;7.80;93.30;;;;;;4955167;28;20208;-73
2022/03/11 06:47:35;;;;;;;9.73;2.60;;;8.10;93.00;;;;;;4955188;28;20220;-74
2022/03/11 06:50:03;;;;;;;5.47;2.57;;;8.20;93.30;;;;;;4955232;28;20219;-73
2022/03/11 06:52:29;;;;;;;5.83;2.57;;;8.50;93.20;;;;;;4955051;28;20230;-73
2022/03/11 06:54:56;;;;;;;4.83;2.57;;;8.80;92.50;;;;;;4955048;28;20235;-73
2022/03/11 06:57:23;;;;;;;4.20;2.60;;;9.20;92.40;;;;;;4968215;28;20219;-73
2022/03/11 06:59:51;;;;;;;6.07;2.50;;;9.40;92.20;;;;;;4974721;28;20210;-73
2022/03/11 07:02:18;;;;;;;5.57;2.40;;;9.50;91.80;;;;;;4973741;28;20199;-73
2022/03/11 07:04:46;;;;;;;5.93;3.23;;;9.50;91.80;;;;;;4973951;28;20764;-73
2022/03/11 07:07:13;;;;;;;7.47;2.80;;;9.70;91.90;;;;;;4974157;28;20213;-73
2022/03/11 07:09:39;;;;;;;5.13;2.30;;;10.30;91.40;;;;;;4973652;28;20206;-73
2022/03/11 07:12:07;;;;;;;5.37;2.27;;;10.80;90.50;;;;;;4971965;28;20204;-73
2022/03/11 07:14:36;;;;;;;5.97;2.43;;;10.40;90.40;;;;;;4972571;28;20203;-73
2022/03/11 07:17:05;;;;;;;5.13;2.73;;;10.70;90.50;;;;;;4972258;28;20239;-74
2022/03/11 07:19:33;;;;;;;5.87;2.67;;;10.90;90.30;;;;;;4973736;28;20218;-74
2022/03/11 07:22:02;;;;;;;5.73;2.30;;;11.20;90.20;;;;;;4973670;28;20214;-73
2022/03/11 07:24:29;;;;;;;7.27;3.10;;;11.30;90.00;;;;;;4973508;28;20663;-73
2022/03/11 07:26:57;;;;;;;4.53;2.43;;;11.00;90.00;;;;;;4973795;28;20211;-73
2022/03/11 07:29:24;;;;;;;5.47;2.80;;;11.30;90.20;;;;;;4974332;28;20213;-73
2022/03/11 07:31:51;;;;;;;9.07;3.57;;;11.30;89.90;;;;;;4974067;28;20215;-73
2022/03/11 07:34:20;;;;;;;6.37;3.00;;;11.30;89.60;;;;;;4973829;28;20233;-73
2022/03/11 07:36:47;;;;;;;8.80;2.73;;;11.20;89.90;;;;;;4973823;28;20670;-73
2022/03/11 07:39:14;;;;;;;7.07;2.13;;;11.20;90.00;;;;;;4974137;28;20659;-73
2022/03/11 07:41:41;;;;;;;5.30;2.40;;;11.60;89.90;;;;;;4974034;28;20233;-73
2022/03/11 07:44:08;;;;;;;5.37;2.67;;;11.70;89.00;;;;;;4973778;28;20769;-73
2022/03/11 07:46:35;;;;;;;5.60;3.10;;;11.80;89.40;;;;;;4973930;28;20243;-73
2022/03/11 07:49:03;;;;;;;7.93;2.80;;;11.90;89.10;;;;;;4973736;28;20217;-73
2022/03/11 07:51:32;;;;;;;4.43;2.33;;;11.50;90.10;;;;;;4973964;28;20289;-74
2022/03/11 07:53:59;;;;;;;7.23;2.53;;;11.70;90.30;;;;;;4973404;28;20228;-73
2022/03/11 07:56:26;;;;;;;8.13;2.43;;;11.90;90.30;;;;;;4973319;28;20235;-73
2022/03/11 07:58:55;;;;;;;4.97;2.60;;;12.10;90.20;;;;;;4973752;28;20237;-73
2022/03/11 08:01:22;;;;;;;4.40;2.30;;;12.60;90.00;;;;;;4973553;28;20231;-73
2022/03/11 08:03:48;;;;;;;6.10;2.43;;;12.90;89.00;;;;;;4973840;28;20230;-73
2022/03/11 08:06:15;;;;;;;5.50;2.40;;;13.50;89.00;;;;;;4973779;28;20218;-72
2022/03/11 08:08:44;;;;;;;6.00;3.00;;;13.40;88.20;;;;;;4973742;28;20211;-73
2022/03/11 08:11:13;;;;;;;7.60;3.20;;;12.90;89.50;;;;;;4973785;28;20278;-73
2022/03/11 08:13:41;;;;;;;5.77;2.93;;;12.90;89.90;;;;;;4973393;28;20654;-73
2022/03/11 08:16:07;;;;;;;6.57;2.63;;;13.10;90.10;;;;;;4973708;28;20237;-73
2022/03/11 08:18:35;;;;;;;6.03;2.63;;;12.70;90.40;;;;;;4973498;28;20666;-73
2022/03/11 08:21:02;;;;;;;6.07;2.93;;;12.90;90.20;;;;;;4973643;28;20651;-72
2022/03/11 08:23:29;;;;;;;7.27;2.80;;;12.60;90.50;;;;;;4973364;28;20223;-73
2022/03/11 08:25:58;;;;;;;5.77;2.90;;;12.60;90.90;;;;;;4973259;28;20223;-73
2022/03/11 08:28:25;;;;;;;5.23;2.60;;;12.60;91.00;;;;;;4974781;28;20207;-73
2022/03/11 08:30:53;;;;;;;5.13;2.63;;;13.00;91.60;;;;;;4977265;28;20290;-73
2022/03/11 08:33:22;;;;;;;5.80;2.70;;;13.20;90.70;;;;;;4977169;28;20223;-72
2022/03/11 08:35:49;;;;;;;6.57;2.60;;;12.70;90.90;;;;;;4976846;28;20235;-73
2022/03/11 08:38:16;;;;;;;6.80;2.77;;;12.60;91.40;;;;;;4976787;28;20213;-73
2022/03/11 08:40:44;;;;;;;8.00;3.03;;;12.70;91.20;;;;;;4976666;28;20211;-73
2022/03/11 08:43:12;;;;;;;8.40;2.70;;;12.90;91.20;;;;;;4976606;28;20227;-72
2022/03/11 08:45:39;;;;;;;5.00;2.60;;;12.80;91.40;;;;;;4976785;28;20283;-73
2022/03/11 08:48:06;;;;;;;5.83;2.70;;;13.00;91.90;;;;;;4963086;28;20208;-73
2022/03/11 08:50:34;;;;;;;9.97;4.33;;;13.60;91.00;;;;;;4956569;29;20620;-72
2022/03/11 08:53:01;;;;;;;5.23;2.70;;;13.60;91.10;;;;;;4956409;28;20228;-73
2022/03/11 08:55:28;;;;;;;7.60;3.60;;;13.10;91.50;;;;;;4969775;28;20229;-73
2022/03/11 08:57:55;;;;;;;7.53;3.20;;;13.10;91.80;;;;;;4976313;28;20211;-73
2022/03/11 09:00:25;;;;;;;5.60;2.50;;;13.40;91.80;;;;;;4967770;28;20204;-73
2022/03/11 09:02:52;;;;;;;6.97;2.77;;;13.70;91.90;;;;;;4967369;28;20227;-73
2022/03/11 09:05:20;;;;;;;6.87;3.60;;;13.20;91.80;;;;;;4975353;28;20235;-73
2022/03/11 09:07:49;;;;;;;5.37;2.80;;;13.00;92.30;;;;;;4970602;28;20210;-73
2022/03/11 09:10:18;;;;;;;7.40;3.10;;;13.20;92.80;;;;;;4966909;28;20614;-73
2022/03/11 09:12:46;;;;;;;7.73;2.80;;;13.60;92.40;;;;;;4975598;28;20282;-73
2022/03/11 09:15:14;;;;;;;6.23;3.07;;;13.50;93.00;;;;;;4975701;28;20204;-72
2022/03/11 09:17:44;;;;;;;7.47;3.50;;;13.50;93.10;;;;;;4975622;28;20294;-72
2022/03/11 09:20:12;;;;;;;6.50;3.43;;;13.50;93.00;;;;;;4975583;28;20207;-73
2022/03/11 09:22:40;;;;;;;7.37;2.77;;;13.80;93.40;;;;;;4975305;28;20708;-72
2022/03/11 09:25:09;;;;;;;4.57;2.40;;;13.80;93.60;;;;;;4975503;28;20258;-72
2022/03/11 09:27:36;;;;;;;8.20;3.17;;;13.30;94.10;;;;;;4975308;28;20215;-72
2022/03/11 09:30:05;;;;;;;6.57;2.47;;;13.40;94.30;;;;;;4975301;28;20204;-71
2022/03/11 09:32:32;;;;;;;4.87;2.50;;;13.00;94.50;;;;;;4975549;28;20237;-72
2022/03/11 09:35:00;;;;;;;5.30;2.37;;;12.90;95.10;;;;;;4975683;28;20545;-73
2022/03/11 09:37:28;;;;;;;5.97;2.50;;;13.00;95.40;;;;;;4975475;28;20238;-72
2022/03/11 09:39:55;;;;;;;7.53;2.50;;;12.90;95.30;;;;;;4975418;28;20211;-72
2022/03/11 09:42:22;;;;;;;4.23;1.97;;;12.70;95.50;;;;;;4975058;28;20204;-72
2022/03/11 09:44:52;;;;;;;4.13;2.17;;;12.70;96.30;;;;;;4975269;28;20217;-72
2022/03/11 09:47:20;;;;;;;3.97;1.90;;;12.70;95.70;;;;;;4973419;28;20728;-71
2022/03/11 09:49:51;;;;;;;4.63;2.80;;;12.90;96.20;;;;;;4966259;28;20214;-73
2022/03/11 09:52:20;;;;;;;2.93;1.97;;;13.00;96.00;;;;;;4974798;28;20214;-72
2022/03/11 09:54:48;;;;;;;4.03;2.20;;;13.10;95.90;;;;;;4974567;28;20218;-72
2022/03/11 09:57:18;;;;;;;4.83;2.60;;;13.20;96.10;;;;;;4973791;28;20238;-74
2022/03/11 09:59:45;;;;;;;4.50;2.33;;;13.10;96.00;;;;;;4974134;28;20266;-72
2022/03/11 10:02:16;;;;;;;2.97;1.77;;;13.10;96.00;;;;;;4973465;28;20911;-72
2022/03/11 10:04:48;;;;;;;5.13;2.27;;;13.20;96.00;;;;;;4974693;28;20215;-73
2022/03/11 10:07:26;;;;;;;4.60;2.37;;;13.20;96.30;;;;;;4974617;28;20207;-74
2022/03/11 10:09:53;;;;;;;4.37;2.37;;;13.40;96.10;;;;;;4973742;28;20955;-73
2022/03/11 10:12:22;;;;;;;6.13;2.40;;;13.50;96.10;;;;;;4972630;28;20570;-73
2022/03/11 10:14:56;;;;;;;4.70;2.30;;;13.60;96.20;;;;;;4970997;28;20203;-71
2022/03/11 10:17:24;;;;;;;4.20;2.13;;;13.70;96.10;;;;;;4970524;28;20230;-75
2022/03/11 10:19:57;;;;;;;6.37;2.63;;;13.70;96.20;;;;;;4955914;28;20208;-79
2022/03/11 10:22:28;;;;;;;4.10;2.30;;;13.80;96.50;;;;;;4953936;28;20254;-78
2022/03/11 10:24:55;;;;;;;4.00;2.30;;;14.00;96.50;;;;;;4953989;28;20216;-74
2022/03/11 10:27:23;;;;;;;4.17;2.17;;;13.70;95.70;;;;;;4953135;28;20287;-74
2022/03/11 10:29:51;;;;;;;3.73;2.20;;;13.60;96.10;;;;;;4963744;28;20666;-75
2022/03/11 10:32:23;;;;;;;3.43;2.00;;;13.60;96.50;;;;;;4974534;28;20207;-74
2022/03/11 10:34:49;;;;;;;6.10;2.27;;;13.70;97.00;;;;;;4974506;28;20611;-75
2022/03/11 10:37:17;;;;;;;5.53;2.10;;;13.80;96.80;;;;;;4973856;28;20245;-75
2022/03/11 10:39:47;;;;;;;4.60;2.10;;;13.90;96.50;;;;;;4974713;28;20685;-86
2022/03/11 10:42:19;;;;;;;5.60;1.97;;;13.90;96.80;;;;;;4975001;28;20230;-86
2022/03/11 10:44:58;;;;;;;3.83;2.17;;;13.80;97.00;;;;;;4974909;28;20203;-80
2022/03/11 10:47:27;;;;;;;4.40;2.17;;;13.80;96.90;;;;;;4974526;28;20566;-74
2022/03/11 10:49:57;;;;;;;3.30;1.63;;;13.80;97.10;;;;;;4973332;28;20203;-74
2022/03/11 10:52:32;;;;;;;5.57;1.80;;;13.80;97.30;;;;;;4973528;28;20209;-74
2022/03/11 10:55:02;;;;;;;4.57;2.20;;;13.70;97.30;;;;;;4974777;28;20687;-75
2022/03/11 10:57:36;;;;;;;4.17;1.97;;;13.80;97.60;;;;;;4975408;28;20259;-75
2022/03/11 11:00:21;;;;;;;4.87;2.00;;;13.70;97.60;;;;;;4974832;28;20258;-75
2022/03/11 11:02:48;;;;;;;3.20;1.60;;;13.90;97.80;;;;;;4974746;28;20317;-84
2022/03/11 11:05:16;;;;;;;3.27;1.73;;;14.00;97.60;;;;;;4975494;28;20207;-74
2022/03/11 11:07:43;;;;;;;8.27;2.20;;;14.20;97.60;;;;;;4974979;28;20305;-82
2022/03/11 11:10:12;;;;;;;3.43;2.10;;;14.40;97.50;;;;;;4981844;28;20258;-74
2022/03/11 11:12:40;;;;;;;4.23;2.60;;;14.40;97.10;;;;;;4985179;28;20231;-78
2022/03/11 11:15:08;;;;;;;3.77;2.07;;;14.30;97.40;;;;;;4985515;28;20219;-76
2022/03/11 11:17:38;;;;;;;3.67;1.90;;;14.40;97.80;;;;;;4985729;28;20259;-85
2022/03/11 11:20:11;;;;;;;5.87;1.70;;;14.50;98.00;;;;;;4985518;28;20219;-86
2022/03/11 11:22:40;;;;;;;3.30;1.70;;;14.50;97.60;;;;;;4977700;28;20227;-89
2022/03/11 11:25:08;;;;;;;5.53;1.77;;;14.60;97.50;;;;;;4975481;28;20224;-76
2022/03/11 11:27:37;;;;;;;4.50;1.90;;;14.60;97.60;;;;;;4974414;28;20218;-85
2022/03/11 11:30:05;;;;;;;2.73;1.60;;;14.70;97.40;;;;;;4974866;28;20210;-79
2022/03/11 11:32:35;;;;;;;3.77;1.80;;;14.60;97.50;;;;;;4974388;28;20230;-76
2022/03/11 11:35:23;;;;;;;4.03;1.90;;;14.60;97.50;;;;;;4974765;28;20203;-85
2022/03/11 11:37:50;;;;;;;2.43;1.50;;;14.70;97.60;;;;;;4974564;28;20239;-83
2022/03/11 11:40:19;;;;;;;4.47;2.13;;;14.90;97.60;;;;;;4974832;28;20214;-88
2022/03/11 11:43:25;;;;;;;4.40;2.00;;;14.80;97.30;;;;;;4974266;28;20690;-86
2022/03/11 11:45:56;;;;;;;3.13;1.70;;;15.00;97.60;;;;;;4974987;28;20578;-87
2022/03/11 11:48:58;;;;;;;3.37;1.60;;;15.10;97.50;;;;;;4974346;28;20217;-75
2022/03/11 11:52:01;;;;;;;2.70;1.47;;;15.40;97.60;;;;;;4972655;28;20302;-81
2022/03/11 11:54:45;;;;;;;2.93;1.37;;;15.60;97.10;;;;;;4974047;28;20656;-75
2022/03/11 11:57:26;;;;;;;3.20;1.47;;;15.60;96.50;;;;;;4974824;28;20241;-75
2022/03/11 11:59:54;;;;;;;4.27;1.70;;;15.50;96.90;;;;;;4966417;28;20200;-83
2022/03/11 12:02:35;;;;;;;6.87;1.60;;;15.50;96.40;;;;;;4974411;28;20238;-82
2022/03/11 12:05:52;;;;;;;3.60;2.00;;;15.50;96.70;;;;;;4977983;28;20233;-78
2022/03/11 12:08:48;;;;;;;4.50;1.07;;;15.70;96.50;;;;;;4963900;28;20833;-75
2022/03/11 12:11:37;;;;;;;2.43;1.33;;;15.80;96.20;;;;;;4976087;28;20203;-79
2022/03/11 12:14:04;;;;;;;2.73;1.37;;;15.80;95.90;;;;;;4971260;28;20232;-78
2022/03/11 12:17:01;;;;;;;1.67;1.23;;;15.90;95.80;;;;;;4977363;28;20769;-81
2022/03/11 12:19:39;;;;;;;1.83;1.30;;;16.00;96.10;;;;;;4978400;28;20270;-83
2022/03/11 12:22:31;;;;;;;3.17;1.83;;;16.10;95.80;;;;;;4975242;28;20203;-76
2022/03/11 12:24:59;;;;;;;2.83;1.63;;;15.90;96.00;;;;;;4975817;28;20199;-75
2022/03/11 12:27:58;;;;;;;2.27;1.53;;;15.90;96.40;;;;;;4967959;28;20201;-86
2022/03/11 12:30:25;;;;;;;4.20;1.70;;;15.90;95.60;;;;;;4957859;29;20216;-80
2022/03/11 12:32:53;;;;;;;2.10;1.30;;;15.80;95.90;;;;;;4957430;28;20891;-85
2022/03/11 12:35:22;;;;;;;2.83;1.40;;;15.80;95.70;;;;;;4957571;28;20266;-88
2022/03/11 12:37:49;;;;;;;2.93;1.50;;;15.80;95.90;;;;;;4958113;28;20310;-78
2022/03/11 12:40:16;;;;;;;2.60;1.40;;;15.90;96.00;;;;;;4958115;28;20211;-83
2022/03/11 12:42:43;;;;;;;2.70;1.40;;;15.90;96.00;;;;;;4958508;28;20227;-88
2022/03/11 12:45:11;;;;;;;4.43;1.70;;;16.10;96.00;;;;;;4957847;28;20302;-85
2022/03/11 12:47:39;;;;;;;2.93;1.60;;;16.10;95.30;;;;;;4957801;29;20203;-76
2022/03/11 12:50:08;;;;;;;3.80;1.60;;;15.90;95.20;;;;;;4957684;28;20485;-77
2022/03/11 12:52:41;;;;;;;3.80;1.10;;;15.90;95.50;;;;;;4957273;29;20423;-76
2022/03/11 12:55:26;;;;;;;1.97;1.27;;;16.00;95.40;;;;;;4952942;28;20696;-83
2022/03/11 12:57:55;;;;;;;1.97;1.33;;;16.00;95.40;;;;;;4972879;28;20231;-80
2022/03/11 13:00:23;;;;;;;2.17;1.30;;;16.10;95.90;;;;;;4969580;28;20210;-79